Time;durP1;ratioP1;P1;durP2;ratioP2;P2;SDS_P1;SDS_P2;PMS_P1;PMS_P2;Temp;Humidity;BMP_temperature;BMP_pressure;BME280_temperature;BME280_humidity;BME280_pressure;Samples;Min_cycle;Max_cycle;Signal;HPM_P1;HPM_P2
2022/07/01 00:00:47;;;;;;;;;1.50;1.00;;;;;15.72;66.30;101098.34;5056241;28;45537;-80
2022/07/01 00:03:13;;;;;;;;;1.00;1.00;;;;;15.81;66.89;101114.41;5076694;28;45280;-79
2022/07/01 00:05:39;;;;;;;;;1.25;1.00;;;;;15.88;66.70;101126.91;5076590;28;46626;-82
2022/07/01 00:08:05;;;;;;;;;1.00;1.00;;;;;15.82;66.15;101110.91;5054158;28;46365;-80
2022/07/01 00:10:30;;;;;;;;;1.75;1.25;;;;;15.83;66.71;101104.72;5071757;28;45421;-81
2022/07/01 00:12:55;;;;;;;;;1.00;1.00;;;;;15.89;66.58;101107.47;5056490;28;45698;-82
2022/07/01 00:15:22;;;;;;;;;1.00;1.00;;;;;15.81;66.53;101097.59;5074008;28;45399;-82
2022/07/01 00:17:48;;;;;;;;;2.00;1.50;;;;;15.84;66.78;101108.25;5076088;28;45819;-82
2022/07/01 00:20:14;;;;;;;;;1.25;1.00;;;;;15.97;66.59;101142.09;5076486;28;45540;-82
2022/07/01 00:22:40;;;;;;;;;1.00;1.00;;;;;15.79;66.72;101112.59;5076510;28;45525;-79
2022/07/01 00:25:06;;;;;;;;;2.00;2.00;;;;;15.76;66.54;101117.81;5075984;28;45897;-82
2022/07/01 00:27:32;;;;;;;;;2.50;1.50;;;;;15.83;66.98;101139.19;5057713;28;45648;-80
2022/07/01 00:29:57;;;;;;;;;0.25;0.25;;;;;15.85;66.78;101145.38;5082175;28;45372;-80
2022/07/01 00:32:22;;;;;;;;;1.00;1.00;;;;;15.80;66.75;101139.09;5075205;28;45629;-80
2022/07/01 00:34:48;;;;;;;;;1.50;1.50;;;;;15.83;66.96;101146.25;5057185;28;46138;-80
2022/07/01 00:37:13;;;;;;;;;1.00;1.00;;;;;15.60;67.16;101113.94;5075174;28;47601;-80
2022/07/01 00:39:38;;;;;;;;;1.00;1.00;;;;;15.67;67.63;101126.50;5074768;28;45547;-81
2022/07/01 00:42:04;;;;;;;;;1.00;0.00;;;;;15.85;67.06;101155.09;5074162;28;45490;-82
2022/07/01 00:44:31;;;;;;;;;2.00;2.00;;;;;15.86;67.33;101148.94;5075478;28;45434;-82
2022/07/01 00:46:59;;;;;;;;;0.25;0.25;;;;;15.69;67.05;101122.09;5060088;28;45762;-80
2022/07/01 00:49:25;;;;;;;;;0.25;0.25;;;;;15.66;67.31;101120.31;5054831;28;45380;-80
2022/07/01 00:51:52;;;;;;;;;0.75;0.75;;;;;15.80;67.00;101128.50;5055819;28;44768;-81
2022/07/01 00:54:19;;;;;;;;;1.00;0.75;;;;;15.89;66.95;101136.63;5069814;28;46658;-81
2022/07/01 00:56:45;;;;;;;;;1.00;1.00;;;;;15.67;66.99;101107.94;5075582;28;45760;-79
2022/07/01 00:59:10;;;;;;;;;1.00;1.00;;;;;15.68;67.13;101113.28;5075508;28;45430;-82
2022/07/01 01:01:36;;;;;;;;;1.00;1.00;;;;;15.82;67.42;101139.16;5062571;28;45540;-82
2022/07/01 01:04:02;;;;;;;;;1.00;1.00;;;;;15.79;67.59;101136.44;5075590;28;45381;-82
2022/07/01 01:06:28;;;;;;;;;0.25;0.25;;;;;15.73;67.26;101148.69;5063477;28;45367;-82
2022/07/01 01:08:53;;;;;;;;;0.25;0.00;;;;;15.54;67.54;101135.91;5069121;28;45462;-79
2022/07/01 01:11:19;;;;;;;;;1.00;1.00;;;;;15.69;67.67;101172.47;5055583;28;45571;-82
2022/07/01 01:13:44;;;;;;;;;1.00;1.00;;;;;15.55;68.11;101153.59;5036720;28;47265;-79
2022/07/01 01:16:18;;;;;;;;;2.00;1.00;;;;;15.49;67.82;101143.75;5055114;28;45569;-80
2022/07/01 01:18:43;;;;;;;;;1.75;1.00;;;;;15.40;67.78;101119.72;5063630;28;45582;-80
2022/07/01 01:21:09;;;;;;;;;0.75;0.75;;;;;15.38;68.08;101132.06;5075322;28;45465;-79
2022/07/01 01:23:34;;;;;;;;;1.00;1.00;;;;;15.45;67.87;101151.59;5075349;28;45466;-80
2022/07/01 01:26:00;;;;;;;;;2.50;2.50;;;;;15.53;67.93;101172.97;5075338;28;45357;-82
2022/07/01 01:28:26;;;;;;;;;1.00;1.00;;;;;15.30;68.31;101144.22;5074997;28;45410;-82
2022/07/01 01:30:52;;;;;;;;;1.50;1.25;;;;;15.38;68.30;101161.19;5065900;28;45542;-82
2022/07/01 01:33:17;;;;;;;;;1.00;1.00;;;;;15.36;68.07;101172.59;5073148;28;45411;-80
2022/07/01 01:35:42;;;;;;;;;1.25;1.00;;;;;15.36;68.28;101173.47;5068966;28;45559;-81
2022/07/01 01:38:08;;;;;;;;;1.00;1.00;;;;;15.18;68.16;101141.31;5054825;28;45406;-80
2022/07/01 01:40:33;;;;;;;;;1.00;1.00;;;;;15.23;68.60;101155.56;5036647;28;45254;-81
2022/07/01 01:42:58;;;;;;;;;1.00;1.00;;;;;15.26;68.51;101158.25;5055714;28;45493;-82
2022/07/01 01:45:24;;;;;;;;;0.00;0.00;;;;;15.31;68.42;101164.53;5070622;28;45232;-82
2022/07/01 01:47:49;;;;;;;;;1.00;1.00;;;;;15.41;68.60;101179.78;5075142;28;45477;-82
2022/07/01 01:50:15;;;;;;;;;1.50;1.25;;;;;15.31;68.53;101161.91;5074874;28;45785;-80
2022/07/01 01:52:43;;;;;;;;;1.00;1.00;;;;;15.21;68.72;101150.19;5072879;28;46542;-82
2022/07/01 01:55:09;;;;;;;;;2.00;2.00;;;;;15.22;68.62;101165.25;5074790;28;45384;-80
2022/07/01 01:57:34;;;;;;;;;0.00;0.00;;;;;15.32;68.71;101178.69;5074835;28;45415;-80
2022/07/01 02:00:00;;;;;;;;;1.00;1.00;;;;;15.16;68.75;101158.91;5066642;28;45538;-80
2022/07/01 02:02:25;;;;;;;;;1.00;1.00;;;;;15.31;68.60;101193.69;5054387;28;46525;-80
2022/07/01 02:04:50;;;;;;;;;1.00;1.00;;;;;15.19;68.80;101182.81;5063529;28;45359;-81
2022/07/01 02:07:16;;;;;;;;;2.00;2.00;;;;;15.13;68.78;101177.41;5074517;28;45351;-82
2022/07/01 02:09:41;;;;;;;;;2.75;1.00;;;;;15.05;68.68;101158.69;5077291;28;45542;-80
2022/07/01 02:12:07;;;;;;;;;1.00;1.00;;;;;15.16;68.54;101185.38;5074556;28;46254;-82
2022/07/01 02:14:32;;;;;;;;;1.00;1.00;;;;;14.95;68.74;101151.38;5071951;28;45489;-82
2022/07/01 02:16:58;;;;;;;;;1.50;1.00;;;;;15.13;68.79;101204.75;5055055;28;45290;-82
2022/07/01 02:19:23;;;;;;;;;1.75;1.75;;;;;15.08;68.87;101184.34;5072022;28;45048;-82
2022/07/01 02:21:50;;;;;;;;;1.00;1.00;;;;;15.18;69.14;101204.88;5071911;28;45238;-80
2022/07/01 02:24:16;;;;;;;;;2.00;1.25;;;;;15.01;68.91;101177.97;5071993;28;45629;-79
2022/07/01 02:26:42;;;;;;;;;2.00;2.00;;;;;14.97;69.09;101184.06;5067991;28;45123;-81
2022/07/01 02:29:07;;;;;;;;;1.00;1.00;;;;;14.94;68.91;101195.50;5083262;28;45020;-79
2022/07/01 02:31:32;;;;;;;;;1.00;1.00;;;;;14.87;69.10;101187.34;5064394;28;45965;-80
2022/07/01 02:33:58;;;;;;;;;1.00;1.00;;;;;14.94;69.21;101213.13;5053924;28;45342;-82
2022/07/01 02:36:23;;;;;;;;;1.00;1.00;;;;;14.89;69.38;101205.06;5054006;28;45402;-80
2022/07/01 02:38:48;;;;;;;;;1.25;1.00;;;;;14.89;69.39;101207.72;5058865;28;45439;-82
2022/07/01 02:41:14;;;;;;;;;1.00;1.00;;;;;14.92;69.18;101207.78;5076797;27;45195;-80
2022/07/01 02:43:39;;;;;;;;;1.00;1.00;;;;;14.74;69.17;101201.16;5091159;28;45122;-82
2022/07/01 02:46:04;;;;;;;;;1.75;1.75;;;;;14.80;69.17;101210.13;5080496;28;45768;-79
2022/07/01 02:48:30;;;;;;;;;1.75;1.00;;;;;14.82;69.67;101208.41;5073453;28;47537;-81
2022/07/01 02:50:55;;;;;;;;;1.00;1.00;;;;;14.75;69.42;101208.22;5073210;28;46723;-81
2022/07/01 02:53:21;;;;;;;;;1.00;1.00;;;;;14.81;69.30;101203.09;5065445;28;47572;-80
2022/07/01 02:55:46;;;;;;;;;1.00;1.00;;;;;14.72;69.57;101185.22;5073116;28;45359;-81
2022/07/01 02:58:12;;;;;;;;;1.00;1.00;;;;;14.78;69.54;101200.34;5073694;28;45694;-82
2022/07/01 03:00:37;;;;;;;;;2.25;1.25;;;;;14.88;69.49;101213.88;5055305;28;47158;-82
2022/07/01 03:03:03;;;;;;;;;1.00;1.00;;;;;14.89;69.39;101228.00;5053629;28;45603;-80
2022/07/01 03:05:28;;;;;;;;;1.00;1.00;;;;;14.79;69.51;101215.41;5066827;28;45522;-79
2022/07/01 03:07:54;;;;;;;;;1.00;1.00;;;;;14.71;69.47;101207.25;5056383;28;45723;-80
2022/07/01 03:10:19;;;;;;;;;2.00;1.00;;;;;14.60;69.42;101198.16;5052872;28;46699;-79
2022/07/01 03:12:44;;;;;;;;;0.75;0.75;;;;;14.53;69.35;101194.47;5053036;28;45311;-82
2022/07/01 03:15:12;;;;;;;;;1.00;1.00;;;;;14.62;69.23;101217.59;5058844;28;45691;-80
2022/07/01 03:17:40;;;;;;;;;1.00;1.00;;;;;14.66;69.44;101216.81;5074239;28;45607;-79
2022/07/01 03:20:08;;;;;;;;;1.00;1.00;;;;;14.52;69.62;101205.00;5087712;28;45944;-80
2022/07/01 03:22:35;;;;;;;;;1.00;1.00;;;;;14.49;69.50;101203.19;5083012;28;45451;-81
2022/07/01 03:25:02;;;;;;;;;1.00;1.00;;;;;14.36;69.85;101183.41;5055474;28;45371;-80
2022/07/01 03:27:28;;;;;;;;;0.50;0.50;;;;;14.55;69.67;101207.72;5073318;28;45456;-79
2022/07/01 03:29:54;;;;;;;;;1.00;1.00;;;;;14.74;69.89;101243.50;5083495;28;46942;-80
2022/07/01 03:32:19;;;;;;;;;0.25;0.25;;;;;14.50;69.62;101194.38;5080957;28;45361;-81
2022/07/01 03:34:48;;;;;;;;;1.00;1.00;;;;;14.78;69.83;101237.41;5056708;28;45379;-82
2022/07/01 03:37:16;;;;;;;;;1.00;1.00;;;;;14.61;69.24;101218.47;5053195;28;45537;-83
2022/07/01 03:39:41;;;;;;;;;1.00;1.00;;;;;14.67;69.30;101224.78;5052893;28;45467;-79
2022/07/01 03:42:08;;;;;;;;;1.50;1.00;;;;;14.71;69.39;101234.59;5053186;28;45379;-80
2022/07/01 03:44:34;;;;;;;;;1.00;0.00;;;;;14.67;69.36;101226.53;5067127;28;45550;-80
2022/07/01 03:47:00;;;;;;;;;2.50;1.50;;;;;14.60;69.27;101224.63;5073250;28;45225;-81
2022/07/01 03:49:25;;;;;;;;;0.00;0.00;;;;;14.58;69.51;101228.94;5070810;28;45307;-80
2022/07/01 03:51:51;;;;;;;;;1.00;1.00;;;;;14.66;69.01;101243.28;5070391;28;45304;-79
2022/07/01 03:54:29;;;;;;;;;2.25;1.25;;;;;14.71;69.19;101252.22;5086407;28;44984;-82
2022/07/01 03:57:15;;;;;;;;;1.25;1.25;;;;;14.70;68.96;101261.03;5091173;28;45035;-82
2022/07/01 03:59:40;;;;;;;;;1.00;1.00;;;;;14.43;69.01;101222.41;5089808;28;45404;-82
2022/07/01 04:02:07;;;;;;;;;0.00;0.00;;;;;14.61;69.08;101260.78;5090095;28;45188;-81
2022/07/01 04:04:33;;;;;;;;;1.50;1.00;;;;;14.72;68.90;101275.19;5086275;28;45325;-79
2022/07/01 04:07:00;;;;;;;;;1.25;1.00;;;;;14.65;68.78;101273.25;5076339;28;45194;-82
2022/07/01 04:09:27;;;;;;;;;1.00;1.00;;;;;14.75;69.05;101287.63;5070845;28;45506;-80
2022/07/01 04:11:53;;;;;;;;;2.00;1.00;;;;;14.69;69.02;101277.78;5073598;28;45402;-82
2022/07/01 04:14:18;;;;;;;;;2.50;2.00;;;;;14.70;69.04;101274.25;5062790;28;45496;-82
2022/07/01 04:16:45;;;;;;;;;2.00;1.25;;;;;14.74;69.10;101269.94;5066912;28;45783;-80
2022/07/01 04:19:11;;;;;;;;;2.00;1.25;;;;;14.63;69.24;101261.72;5081392;28;45759;-82
2022/07/01 04:24:24;;;;;;;;;1.00;1.00;;;;;14.56;68.78;101249.19;5056051;28;45364;-79
2022/07/01 04:26:50;;;;;;;;;1.00;1.00;;;;;14.76;68.86;101282.34;5059150;28;45398;-81
2022/07/01 04:29:16;;;;;;;;;1.00;1.00;;;;;14.59;69.08;101260.75;5074847;28;45473;-79
2022/07/01 04:31:41;;;;;;;;;1.00;1.00;;;;;14.62;68.89;101266.09;5056952;28;45385;-79
2022/07/01 04:34:08;;;;;;;;;1.00;1.00;;;;;14.62;69.04;101260.81;5075446;28;45479;-81
2022/07/01 04:36:34;;;;;;;;;1.00;1.00;;;;;14.71;69.13;101290.16;5072636;28;45305;-83
2022/07/01 04:39:00;;;;;;;;;2.00;1.00;;;;;14.51;69.04;101250.81;5056528;28;47303;-79
2022/07/01 04:44:10;;;;;;;;;1.00;1.00;;;;;14.73;69.00;101287.59;5073496;28;45449;-79
2022/07/01 04:46:35;;;;;;;;;1.00;1.00;;;;;14.60;68.90;101266.94;5074404;28;45477;-80
2022/07/01 04:49:01;;;;;;;;;1.25;1.25;;;;;14.64;69.08;101276.75;5072232;28;45512;-82
2022/07/01 04:51:26;;;;;;;;;1.00;1.00;;;;;14.55;69.06;101263.28;5071422;28;45538;-80
2022/07/01 04:53:52;;;;;;;;;1.00;1.00;;;;;14.63;68.62;101278.50;5079520;28;45547;-82
2022/07/01 04:56:17;;;;;;;;;2.00;2.00;;;;;14.82;68.78;101310.72;5057169;28;45446;-81
2022/07/01 04:58:43;;;;;;;;;0.00;0.00;;;;;14.58;68.81;101261.63;5066868;28;46731;-83
2022/07/01 05:01:08;;;;;;;;;1.00;1.00;;;;;14.65;68.73;101279.44;5055469;28;45492;-82
2022/07/01 05:03:34;;;;;;;;;1.00;1.00;;;;;14.64;69.21;101268.81;5070773;28;45662;-81
2022/07/01 05:05:59;;;;;;;;;1.50;1.00;;;;;14.83;68.93;101308.13;5059837;28;45465;-80
2022/07/01 05:08:26;;;;;;;;;1.25;1.25;;;;;14.85;69.06;101306.41;5073954;28;45457;-80
2022/07/01 05:10:51;;;;;;;;;3.00;3.00;;;;;14.83;68.83;101296.66;5073596;28;45823;-79
2022/07/01 05:13:16;;;;;;;;;1.75;1.00;;;;;14.91;68.64;101298.63;5068107;27;45512;-80
2022/07/01 05:15:47;;;;;;;;;1.75;1.75;;;;;14.91;68.92;101301.28;5088979;27;44924;-82
2022/07/01 05:23:41;;;;;;;;;1.25;1.00;;;;;15.04;68.75;101309.53;5085285;27;45193;-80
2022/07/01 05:26:06;;;;;;;;;2.00;2.00;;;;;15.03;68.51;101313.06;5070368;28;45156;-81
2022/07/01 05:28:32;;;;;;;;;2.00;1.00;;;;;15.08;68.57;101314.06;5088772;28;45677;-82
2022/07/01 05:30:57;;;;;;;;;1.25;1.00;;;;;14.91;68.41;101266.84;5088820;27;45204;-81
2022/07/01 05:33:26;;;;;;;;;2.67;2.33;;;;;15.22;68.90;101323.22;5091261;27;44995;-80
2022/07/01 05:35:52;;;;;;;;;2.00;2.00;;;;;15.13;68.35;101292.13;5074300;28;45182;-81
2022/07/01 05:38:17;;;;;;;;;1.00;1.00;;;;;14.92;67.93;101258.06;5078690;27;45384;-80
2022/07/01 05:40:42;;;;;;;;;1.00;1.00;;;;;14.99;68.01;101260.88;5077700;28;49138;-80
2022/07/01 05:43:07;;;;;;;;;2.00;2.00;;;;;15.29;67.46;101311.03;5086615;28;45043;-81
2022/07/01 05:45:33;;;;;;;;;7.00;6.00;;;;;15.19;67.84;101294.03;5092043;28;45072;-80
2022/07/01 05:47:58;;;;;;;;;2.75;2.75;;;;;15.19;67.87;101292.28;5090933;28;46009;-81
2022/07/01 05:50:23;;;;;;;;;3.00;3.00;;;;;15.20;68.05;101287.88;5089862;28;44892;-82
2022/07/01 05:52:49;;;;;;;;;2.00;1.75;;;;;15.31;67.67;101296.97;5088996;28;45185;-81
2022/07/01 05:55:14;;;;;;;;;2.25;2.00;;;;;15.22;67.64;101278.19;5091571;28;44972;-82
2022/07/01 05:57:40;;;;;;;;;2.25;2.25;;;;;15.48;67.67;101316.81;5089144;28;45210;-81
2022/07/01 06:00:06;;;;;;;;;1.25;1.00;;;;;15.40;67.87;101302.50;5090627;28;45288;-81
2022/07/01 06:02:33;;;;;;;;;2.00;2.00;;;;;15.48;67.36;101303.56;5084093;27;45636;-81
2022/07/01 06:05:05;;;;;;;;;2.00;1.75;;;;;15.55;67.07;101317.84;5068850;27;46841;-80
2022/07/01 06:07:31;;;;;;;;;1.50;1.00;;;;;15.60;67.19;101323.25;5052605;27;47883;-82
2022/07/01 06:09:57;;;;;;;;;3.00;2.00;;;;;15.40;67.06;101280.41;5060192;27;45456;-83
2022/07/01 06:12:22;;;;;;;;;3.25;3.00;;;;;15.64;66.67;101314.56;5052876;28;45698;-82
2022/07/01 06:14:48;;;;;;;;;2.25;1.25;;;;;15.67;66.67;101317.28;5060365;27;45709;-84
2022/07/01 06:17:14;;;;;;;;;2.75;2.25;;;;;15.84;66.98;101341.50;5065710;27;45224;-80
2022/07/01 06:19:40;;;;;;;;;4.00;4.00;;;;;15.62;66.43;101303.91;5080199;27;45421;-84
2022/07/01 06:22:06;;;;;;;;;2.00;2.00;;;;;15.94;66.35;101351.47;5078374;27;45300;-83
2022/07/01 06:24:32;;;;;;;;;2.00;2.00;;;;;15.86;66.54;101330.09;5045991;27;45415;-84
2022/07/01 06:26:57;;;;;;;;;1.00;1.00;;;;;15.62;66.12;101284.47;5075207;27;45889;-84
2022/07/01 06:29:23;;;;;;;;;2.50;2.25;;;;;15.88;66.75;101325.72;5053500;27;45479;-83
2022/07/01 06:31:49;;;;;;;;;1.75;1.75;;;;;15.78;66.22;101294.56;5057029;27;45400;-84
2022/07/01 06:34:14;;;;;;;;;1.50;1.50;;;;;16.04;65.79;101332.25;5081504;27;45067;-85
2022/07/01 06:36:40;;;;;;;;;2.00;2.00;;;;;16.02;65.55;101325.13;5076555;27;45939;-84
2022/07/01 06:39:05;;;;;;;;;1.75;1.75;;;;;15.96;65.73;101305.59;5088518;27;45978;-84
2022/07/01 06:41:31;;;;;;;;;0.00;0.00;;;;;16.09;65.65;101317.31;5088742;28;45352;-85
2022/07/01 06:44:00;;;;;;;;;1.25;1.00;;;;;16.29;65.44;101343.38;5073748;27;45214;-83
2022/07/01 06:46:27;;;;;;;;;2.00;2.00;;;;;16.18;65.27;101328.13;5067949;27;46486;-84
2022/07/01 06:48:53;;;;;;;;;1.00;1.00;;;;;16.23;64.51;101328.22;5079326;27;45506;-83
2022/07/01 06:51:19;;;;;;;;;2.00;2.00;;;;;16.46;64.69;101352.59;5077797;27;45675;-81
2022/07/01 06:53:46;;;;;;;;;1.50;1.50;;;;;16.32;64.60;101325.78;5081561;27;45134;-83
2022/07/01 06:56:14;;;;;;;;;1.00;1.00;;;;;16.58;64.60;101359.88;5079021;27;45268;-83
2022/07/01 06:58:40;;;;;;;;;1.50;1.00;;;;;16.47;64.12;101339.34;5068262;27;45524;-82
2022/07/01 07:01:06;;;;;;;;;0.75;0.00;;;;;16.66;64.49;101368.91;5068844;27;45453;-80
2022/07/01 07:03:32;;;;;;;;;1.00;1.00;;;;;16.59;63.40;101349.28;5081863;27;45184;-84
2022/07/01 07:06:03;;;;;;;;;1.00;1.00;;;;;16.58;63.41;101342.19;5060263;28;46954;-83
2022/07/01 07:08:30;;;;;;;;;1.50;1.00;;;;;16.69;63.18;101351.25;5081180;27;45236;-82
2022/07/01 07:10:55;;;;;;;;;0.25;0.25;;;;;16.43;62.94;101307.41;5083264;27;45287;-83
2022/07/01 07:13:20;;;;;;;;;0.50;0.50;;;;;16.57;62.86;101321.84;5047624;27;45229;-83
2022/07/01 07:15:47;;;;;;;;;0.25;0.25;;;;;16.77;62.07;101351.44;5077452;27;45620;-80
2022/07/01 07:18:12;;;;;;;;;3.25;1.50;;;;;16.70;62.07;101338.91;5063340;28;45483;-82
2022/07/01 07:20:38;;;;;;;;;1.00;1.00;;;;;16.74;62.00;101348.72;5072497;27;45362;-84
2022/07/01 07:23:04;;;;;;;;;0.25;0.25;;;;;16.87;62.40;101356.06;5030883;28;45443;-83
2022/07/01 07:25:29;;;;;;;;;1.00;1.00;;;;;16.79;61.35;101328.47;5080278;27;46526;-83
2022/07/01 07:27:54;;;;;;;;;1.00;1.00;;;;;16.98;61.09;101354.50;5075132;27;46160;-82
2022/07/01 07:30:20;;;;;;;;;0.00;0.00;;;;;16.81;60.97;101316.13;5064342;27;45653;-81
2022/07/01 07:32:45;;;;;;;;;1.25;1.00;;;;;16.96;60.88;101348.28;5068389;27;45232;-82
2022/07/01 07:35:12;;;;;;;;;0.50;0.00;;;;;17.08;61.20;101352.00;5062550;27;45801;-82
2022/07/01 07:37:38;;;;;;;;;0.25;0.25;;;;;16.99;61.04;101335.06;5065294;27;45595;-81
2022/07/01 07:40:06;;;;;;;;;0.25;0.00;;;;;17.11;60.75;101349.41;5075331;28;45415;-82
2022/07/01 07:42:32;;;;;;;;;0.00;0.00;;;;;17.12;60.56;101348.53;5070901;27;44796;-82
2022/07/01 07:44:58;;;;;;;;;0.00;0.00;;;;;17.07;60.42;101324.56;5069299;27;45389;-81
2022/07/01 07:47:24;;;;;;;;;1.00;1.00;;;;;17.25;60.18;101353.22;5065304;27;45280;-83
2022/07/01 07:49:49;;;;;;;;;1.00;0.00;;;;;17.02;60.02;101305.00;5066442;27;45694;-84
2022/07/01 07:52:15;;;;;;;;;0.00;0.00;;;;;17.06;59.63;101314.81;5065167;27;46080;-82
2022/07/01 07:54:40;;;;;;;;;1.00;0.75;;;;;17.02;59.88;101295.25;5069590;27;45551;-82
2022/07/01 07:57:07;;;;;;;;;0.00;0.00;;;;;17.00;59.82;101275.78;5066402;27;45553;-82
2022/07/01 07:59:33;;;;;;;;;1.75;1.00;;;;;17.39;59.65;101333.09;5084177;28;45270;-83
2022/07/01 08:01:58;;;;;;;;;2.00;1.25;;;;;17.43;58.84;101326.03;5078035;28;45817;-83
2022/07/01 08:04:23;;;;;;;;;1.00;1.00;;;;;17.46;59.17;101324.31;5087043;28;51605;-85
2022/07/01 08:06:49;;;;;;;;;1.00;1.00;;;;;17.46;59.27;101321.66;5082938;27;45684;-79
2022/07/01 08:09:14;;;;;;;;;0.00;0.00;;;;;17.48;59.20;101324.34;5057765;28;45442;-85
2022/07/01 08:11:39;;;;;;;;;1.50;0.00;;;;;17.62;58.25;101351.13;5072810;27;45730;-84
2022/07/01 08:14:05;;;;;;;;;0.00;0.00;;;;;17.70;58.54;101357.47;5059937;27;45726;-82
2022/07/01 08:16:30;;;;;;;;;0.00;0.00;;;;;17.48;58.39;101316.38;5080373;27;45350;-80
2022/07/01 08:18:56;;;;;;;;;0.75;0.75;;;;;17.65;57.47;101338.78;5061781;28;45640;-81
2022/07/01 08:21:21;;;;;;;;;1.75;0.00;;;;;17.65;57.07;101346.78;5047658;28;45520;-83
2022/07/01 08:23:47;;;;;;;;;0.00;0.00;;;;;17.64;55.95;101344.09;5074248;28;45893;-80
2022/07/01 08:26:14;;;;;;;;;2.00;0.00;;;;;17.69;55.70;101340.63;5069969;27;45341;-83
2022/07/01 08:28:39;;;;;;;;;2.00;1.00;;;;;17.75;55.43;101361.13;5078812;28;45736;-80
2022/07/01 08:31:05;;;;;;;;;0.00;0.00;;;;;17.70;55.17;101347.75;5076549;28;45536;-81
2022/07/01 08:33:30;;;;;;;;;0.00;0.00;;;;;17.77;55.14;101349.63;5092888;28;45297;-81
2022/07/01 08:35:55;;;;;;;;;2.00;0.50;;;;;17.74;55.08;101344.28;5090877;27;45135;-80
2022/07/01 08:38:21;;;;;;;;;2.50;1.25;;;;;17.92;55.35;101375.56;5080441;27;45115;-80
2022/07/01 08:40:46;;;;;;;;;1.00;0.50;;;;;18.00;55.29;101365.03;5072780;28;45207;-81
2022/07/01 08:43:11;;;;;;;;;0.00;0.00;;;;;17.78;55.10;101323.94;5071937;28;45103;-81
2022/07/01 08:45:37;;;;;;;;;0.25;0.00;;;;;17.99;54.17;101353.50;5054810;28;45262;-83
2022/07/01 08:48:04;;;;;;;;;0.50;0.50;;;;;17.84;54.42;101329.38;5073546;28;45198;-81
2022/07/01 08:50:31;;;;;;;;;0.00;0.00;;;;;18.16;53.75;101384.75;5093523;28;45136;-80
2022/07/01 08:52:58;;;;;;;;;0.50;0.00;;;;;17.98;53.68;101357.06;5093153;28;47162;-81
2022/07/01 08:55:24;;;;;;;;;1.25;0.00;;;;;18.01;53.38;101357.06;5091052;28;45375;-81
2022/07/01 08:57:50;;;;;;;;;0.00;0.00;;;;;18.10;53.24;101360.75;5091913;28;45228;-80
2022/07/01 09:00:16;;;;;;;;;0.25;0.25;;;;;18.21;53.30;101368.00;5091245;28;45366;-83
2022/07/01 09:03:04;;;;;;;;;0.00;0.00;;;;;18.22;53.29;101361.78;5074119;28;46327;-82
2022/07/01 09:05:31;;;;;;;;;0.25;0.00;;;;;18.17;52.36;101352.84;5072825;28;45114;-82
2022/07/01 09:08:02;;;;;;;;;0.00;0.00;;;;;18.49;52.99;101387.00;5081222;28;45052;-82
2022/07/01 09:10:31;;;;;;;;;0.00;0.00;;;;;18.47;52.35;101370.09;5081807;28;45104;-82
2022/07/01 09:12:58;;;;;;;;;0.00;0.00;;;;;18.62;52.87;101398.66;5086921;28;45580;-83
2022/07/01 09:15:29;;;;;;;;;0.00;0.00;;;;;18.48;52.41;101375.44;5083315;28;45734;-80
2022/07/01 09:18:16;;;;;;;;;0.00;0.00;;;;;18.40;52.08;101345.16;5080004;28;45231;-82
2022/07/01 09:20:45;;;;;;;;;0.25;0.25;;;;;18.58;53.59;101365.81;5074585;28;45306;-82
2022/07/01 09:23:13;;;;;;;;;0.00;0.00;;;;;18.80;51.84;101388.25;5092735;28;45987;-80
2022/07/01 09:25:47;;;;;;;;;1.50;0.75;;;;;18.89;51.92;101377.72;5093121;28;45087;-82
2022/07/01 09:28:25;;;;;;;;;0.00;0.00;;;;;19.02;51.25;101378.75;5091798;28;45401;-82
2022/07/01 09:30:53;;;;;;;;;0.75;0.00;;;;;19.05;51.54;101389.41;5093717;28;44906;-81
2022/07/01 09:33:24;;;;;;;;;0.00;0.00;;;;;19.04;51.22;101382.31;5085075;28;45875;-81
2022/07/01 09:35:51;;;;;;;;;0.00;0.00;;;;;18.95;50.96;101361.78;5072243;28;45651;-81
2022/07/01 09:38:18;;;;;;;;;0.00;0.00;;;;;19.15;50.46;101377.09;5090827;28;45004;-82
2022/07/01 09:40:58;;;;;;;;;0.00;0.00;;;;;19.26;50.47;101394.06;5091008;28;45104;-82
2022/07/01 09:43:23;;;;;;;;;0.00;0.00;;;;;19.32;50.72;101411.03;5090192;28;45367;-83
2022/07/01 09:45:50;;;;;;;;;0.00;0.00;;;;;19.11;51.01;101381.47;5078866;27;45282;-82
2022/07/01 09:48:15;;;;;;;;;0.75;0.25;;;;;19.16;50.98;101379.78;5080025;28;45276;-82
2022/07/01 09:50:40;;;;;;;;;0.75;0.75;;;;;19.19;50.20;101377.13;5060690;28;45192;-82
2022/07/01 09:53:06;;;;;;;;;0.00;0.00;;;;;19.22;50.15;101386.94;5079843;27;46935;-82
2022/07/01 09:55:34;;;;;;;;;0.00;0.00;;;;;19.42;49.97;101406.66;5064588;27;46103;-82
2022/07/01 09:57:59;;;;;;;;;0.00;0.00;;;;;19.59;50.25;101401.47;5081428;28;45509;-82
2022/07/01 10:00:26;;;;;;;;;0.00;0.00;;;;;19.62;49.75;101373.97;5058680;28;45814;-82
2022/07/01 10:02:54;;;;;;;;;0.50;0.50;;;;;19.75;49.38;101375.84;5072153;28;46518;-81
2022/07/01 10:05:23;;;;;;;;;0.00;0.00;;;;;19.95;49.74;101389.31;5066458;28;45963;-80
2022/07/01 10:08:12;;;;;;;;;0.00;0.00;;;;;19.96;49.28;101392.00;5057814;28;45462;-82
2022/07/01 10:11:13;;;;;;;;;0.00;0.00;;;;;20.06;49.01;101411.63;5068651;28;45156;-83
2022/07/01 10:13:41;;;;;;;;;0.00;0.00;;;;;19.96;48.60;101368.00;5078830;28;45809;-81
2022/07/01 10:16:08;;;;;;;;;0.00;0.00;;;;;20.18;48.30;101395.69;5072834;28;45271;-81
2022/07/01 10:18:34;;;;;;;;;0.00;0.00;;;;;20.33;48.70;101389.53;5071894;28;45140;-81
2022/07/01 10:20:59;;;;;;;;;0.00;0.00;;;;;20.36;48.26;101374.44;5072217;28;45233;-80
2022/07/01 10:23:37;;;;;;;;;0.00;0.00;;;;;20.41;47.81;101393.13;5075048;28;45202;-82
2022/07/01 10:26:05;;;;;;;;;0.00;0.00;;;;;19.96;47.91;101335.97;5080068;28;45381;-82
2022/07/01 10:28:48;;;;;;;;;0.00;0.00;;;;;20.26;48.16;101409.09;5070347;28;45284;-82
2022/07/01 10:31:16;;;;;;;;;0.00;0.00;;;;;19.62;47.95;101323.31;5091921;28;44945;-82
2022/07/01 10:33:55;;;;;;;;;0.75;0.75;;;;;20.06;48.56;101420.53;5091838;28;45220;-83
2022/07/01 10:36:26;;;;;;;;;0.25;0.25;;;;;20.07;49.47;101411.63;5091784;28;45008;-81
2022/07/01 10:39:06;;;;;;;;;1.00;0.00;;;;;20.17;49.33;101411.69;5091906;28;45460;-83
2022/07/01 10:41:34;;;;;;;;;0.00;0.00;;;;;20.16;48.70;101391.22;5079069;28;45105;-83
2022/07/01 10:44:03;;;;;;;;;0.00;0.00;;;;;20.23;49.26;101380.59;5070735;28;45947;-82
2022/07/01 10:46:49;;;;;;;;;1.00;0.00;;;;;20.50;48.67;101398.56;5080619;28;45469;-80
2022/07/01 10:49:16;;;;;;;;;1.00;0.00;;;;;20.68;48.50;101388.81;5071419;28;45049;-83
2022/07/01 10:51:57;;;;;;;;;0.00;0.00;;;;;21.01;48.19;101393.38;5069658;28;45266;-82
2022/07/01 10:54:43;;;;;;;;;0.00;0.00;;;;;21.28;46.86;101398.78;5068875;28;45687;-81
2022/07/01 10:57:20;;;;;;;;;0.00;0.00;;;;;21.56;46.72;101389.00;5079608;28;45526;-86
2022/07/01 10:59:52;;;;;;;;;1.00;0.00;;;;;21.79;46.01;101397.00;5057897;28;45408;-81
2022/07/01 11:02:22;;;;;;;;;0.00;0.00;;;;;21.94;46.12;101398.78;5068090;28;45612;-81
2022/07/01 11:04:50;;;;;;;;;0.00;0.00;;;;;21.92;45.69;101379.16;5071270;28;46482;-81
2022/07/01 11:07:15;;;;;;;;;0.00;0.00;;;;;22.09;45.76;101412.13;5050367;28;46212;-81
2022/07/01 11:09:41;;;;;;;;;1.00;0.50;;;;;21.95;45.38;101392.53;5057250;28;45387;-82
2022/07/01 11:12:07;;;;;;;;;0.00;0.00;;;;;21.63;46.05;101353.34;5072468;28;45399;-82
2022/07/01 11:14:40;;;;;;;;;0.25;0.00;;;;;21.71;45.81;101365.78;5064422;28;46152;-83
2022/07/01 11:17:08;;;;;;;;;0.00;0.00;;;;;21.76;45.29;101372.03;5059618;27;46141;-82
2022/07/01 11:19:33;;;;;;;;;0.00;0.00;;;;;21.95;44.47;101400.56;5057851;27;45717;-81
2022/07/01 11:21:59;;;;;;;;;0.00;0.00;;;;;21.92;44.45;101375.56;5055917;28;45477;-82
2022/07/01 11:24:25;;;;;;;;;0.00;0.00;;;;;22.12;44.38;101382.72;5068558;28;45615;-82
2022/07/01 11:26:55;;;;;;;;;0.00;0.00;;;;;22.13;44.23;101367.53;5054043;27;45684;-82
2022/07/01 11:29:26;;;;;;;;;0.00;0.00;;;;;22.10;43.63;101338.03;5065072;28;45711;-82
2022/07/01 11:31:52;;;;;;;;;0.00;0.00;;;;;22.27;43.44;101370.19;5061879;28;45456;-81
2022/07/01 11:34:17;;;;;;;;;0.00;0.00;;;;;21.85;43.56;101287.28;5072283;28;46799;-82